Terminal Aerodrome Forecast
Issued by NWS

Home | Current Version | Previous Version | Text Only | Print | Product List | Glossary On
Versions: 1 2 3 4 5 6 7 8 9 10 11 12 13 14 15 16 17
000
FTUS41 KBGM 181738 AAA
TAFITH
TAF AMD
KITH 181738Z 1818/1918 21008KT P6SM BKN050
      TEMPO 1819/1823 -SHRA OVC030
     FM190100 26005KT P6SM SCT100
     FM190800 VRB03KT 3SM BR BKN012
     FM191300 27010KT P6SM BKN045=

USA.gov is the U.S. government's official web portal to all federal, state and local government web resources and services.